Time;durP1;ratioP1;P1;durP2;ratioP2;P2;SDS_P1;SDS_P2;PMS_P1;PMS_P2;Temp;Humidity;BMP_temperature;BMP_pressure;BME280_temperature;BME280_humidity;BME280_pressure;Samples;Min_cycle;Max_cycle;Signal;HPM_P1;HPM_P2
2022/09/23 00:00:34;;;;;;;;;19.50;13.25;;;;;17.51;41.67;101156.34;5094908;27;46142;-44
2022/09/23 00:03:00;;;;;;;;;20.00;14.25;;;;;17.50;41.70;101160.81;5095238;27;45255;-42
2022/09/23 00:05:26;;;;;;;;;20.00;15.75;;;;;17.50;41.59;101149.38;5094990;27;45448;-42
2022/09/23 00:07:52;;;;;;;;;15.50;13.25;;;;;17.49;41.63;101156.44;5094774;27;45276;-42
2022/09/23 00:10:17;;;;;;;;;20.00;15.50;;;;;17.49;41.50;101152.94;5097710;27;45985;-43
2022/09/23 00:12:43;;;;;;;;;15.75;13.00;;;;;17.46;41.75;101144.22;5095998;27;45480;-43
2022/09/23 00:15:10;;;;;;;;;18.25;14.25;;;;;17.44;41.77;101143.44;5089809;27;45377;-43
2022/09/23 00:17:36;;;;;;;;;19.50;15.75;;;;;17.44;41.79;101143.44;5086540;27;45436;-44
2022/09/23 00:20:01;;;;;;;;;16.50;14.25;;;;;17.43;41.67;101146.16;5098086;27;46229;-43
2022/09/23 00:22:26;;;;;;;;;18.25;15.75;;;;;17.42;41.88;101131.22;5101764;27;45336;-43
2022/09/23 00:24:52;;;;;;;;;16.75;16.00;;;;;17.41;41.85;101127.72;5101779;27;55029;-43
2022/09/23 00:27:19;;;;;;;;;17.25;14.50;;;;;17.41;41.75;101126.88;5097478;27;45469;-43
2022/09/23 00:29:45;;;;;;;;;17.75;14.25;;;;;17.40;42.17;101135.72;5096811;27;46411;-43
2022/09/23 00:32:10;;;;;;;;;16.25;14.50;;;;;17.39;42.21;101124.28;5091836;27;45402;-43
2022/09/23 00:34:36;;;;;;;;;16.75;14.50;;;;;17.39;42.21;101121.66;5096482;27;57048;-43
2022/09/23 00:37:01;;;;;;;;;17.25;13.50;;;;;17.41;42.13;101124.22;5095489;27;45373;-43
2022/09/23 00:39:26;;;;;;;;;16.50;12.25;;;;;17.40;42.23;101112.75;5093289;27;75554;-46
2022/09/23 00:41:53;;;;;;;;;14.75;13.75;;;;;17.40;42.30;101114.56;5103639;27;61827;-43
2022/09/23 00:44:47;;;;;;;;;17.50;12.25;;;;;17.40;42.04;101114.56;5100841;27;45279;-43
2022/09/23 00:47:18;;;;;;;;;18.25;15.75;;;;;17.38;42.10;101117.28;5099386;27;45486;-45
2022/09/23 00:49:47;;;;;;;;;14.00;12.75;;;;;17.38;42.31;101116.44;5078714;27;45470;-44
2022/09/23 00:52:16;;;;;;;;;19.00;15.00;;;;;17.36;42.43;101113.00;5094509;27;45356;-43
2022/09/23 00:54:41;;;;;;;;;14.00;14.00;;;;;17.36;42.22;101115.66;5094147;27;45380;-44
2022/09/23 00:57:10;;;;;;;;;14.50;12.25;;;;;17.33;42.27;101113.16;5091438;27;46493;-46
2022/09/23 00:59:36;;;;;;;;;21.00;13.75;;;;;17.32;42.39;101104.38;5080494;27;46345;-43
2022/09/23 01:02:02;;;;;;;;;16.75;12.50;;;;;17.30;42.60;101111.53;5097737;27;45444;-42
2022/09/23 01:04:28;;;;;;;;;17.25;14.50;;;;;17.29;42.42;101107.16;5098545;27;45608;-42
2022/09/23 01:06:53;;;;;;;;;17.00;13.00;;;;;17.31;42.65;101112.38;5098533;27;45374;-44
2022/09/23 01:09:19;;;;;;;;;15.50;12.50;;;;;17.28;42.79;101110.72;5100877;27;68242;-42
2022/09/23 01:11:56;;;;;;;;;16.75;15.00;;;;;17.27;42.86;101111.66;5096542;27;62817;-45
2022/09/23 01:14:43;;;;;;;;;18.00;15.75;;;;;17.26;42.67;101110.81;5092751;27;45455;-41
2022/09/23 01:17:18;;;;;;;;;19.75;14.00;;;;;17.24;42.94;101117.94;5107895;27;45830;-43
2022/09/23 01:20:04;;;;;;;;;15.25;12.50;;;;;17.23;42.91;101112.75;5090859;27;47067;-46
2022/09/23 01:22:43;;;;;;;;;16.50;13.50;;;;;17.22;42.95;101111.03;5094576;27;45835;-42
2022/09/23 01:25:33;;;;;;;;;17.00;15.75;;;;;17.19;42.95;101104.13;5080431;27;45566;-42
2022/09/23 01:28:04;;;;;;;;;20.50;14.75;;;;;17.17;43.05;101090.09;5096739;27;45702;-42
2022/09/23 01:31:08;;;;;;;;;13.00;11.50;;;;;17.15;43.08;101084.03;5098376;27;46150;-42
2022/09/23 01:33:46;;;;;;;;;16.25;12.00;;;;;17.15;43.12;101083.19;5100421;27;45346;-42
2022/09/23 01:36:25;;;;;;;;;12.50;12.25;;;;;17.15;43.23;101080.53;5098959;27;45363;-42
2022/09/23 01:38:57;;;;;;;;;19.25;13.25;;;;;17.16;43.22;101076.97;5077957;27;45646;-43
2022/09/23 01:41:33;;;;;;;;;15.75;11.50;;;;;17.17;43.66;101068.09;5091369;27;47149;-44
2022/09/23 01:44:09;;;;;;;;;20.50;12.00;;;;;17.16;43.50;101071.69;5101138;27;45424;-44
2022/09/23 01:46:39;;;;;;;;;16.75;14.50;;;;;17.16;43.60;101080.47;5099421;27;45247;-42
2022/09/23 01:49:25;;;;;;;;;19.00;17.00;;;;;17.14;43.68;101084.97;5099651;27;45330;-42
2022/09/23 01:52:05;;;;;;;;;15.00;13.00;;;;;17.12;43.49;101078.03;5085893;27;46321;-41
2022/09/23 01:54:37;;;;;;;;;14.25;11.50;;;;;17.10;43.85;101086.03;5097423;27;46517;-42
2022/09/23 01:57:05;;;;;;;;;18.75;13.25;;;;;17.10;43.74;101085.19;5092074;27;45343;-42
2022/09/23 01:59:35;;;;;;;;;12.75;12.25;;;;;17.10;43.66;101085.19;5090864;27;45383;-43
2022/09/23 02:02:08;;;;;;;;;24.25;15.75;;;;;17.08;43.98;101085.25;5094192;27;46440;-44
2022/09/23 02:04:43;;;;;;;;;17.75;12.75;;;;;17.08;43.90;101088.75;5097363;27;45313;-46
2022/09/23 02:07:17;;;;;;;;;15.00;13.00;;;;;17.07;44.08;101088.84;5091731;27;45491;-46
2022/09/23 02:09:46;;;;;;;;;19.50;13.50;;;;;17.07;43.96;101080.91;5089385;27;45465;-42
2022/09/23 02:12:16;;;;;;;;;18.25;13.75;;;;;17.05;43.69;101080.09;5090754;27;46298;-43
2022/09/23 02:14:49;;;;;;;;;16.75;11.75;;;;;17.00;43.82;101072.41;5098368;27;45318;-43
2022/09/23 02:17:22;;;;;;;;;15.75;13.75;;;;;17.05;43.78;101078.34;5099036;27;45436;-42
2022/09/23 02:19:56;;;;;;;;;19.75;14.00;;;;;17.05;44.08;101081.00;5089255;27;45430;-43
2022/09/23 02:22:27;;;;;;;;;18.00;13.50;;;;;17.05;44.30;101075.69;5098048;27;45355;-42
2022/09/23 02:24:54;;;;;;;;;13.75;11.75;;;;;17.04;44.23;101084.53;5094184;27;45915;-42
2022/09/23 02:27:34;;;;;;;;;18.25;14.00;;;;;17.04;44.06;101079.25;5094690;27;45454;-42
2022/09/23 02:30:10;;;;;;;;;12.75;12.25;;;;;17.04;44.10;101071.31;5088035;27;45601;-42
2022/09/23 02:32:44;;;;;;;;;16.25;13.00;;;;;17.05;44.04;101066.88;5094075;27;45471;-42
2022/09/23 02:35:31;;;;;;;;;13.75;12.00;;;;;17.03;43.93;101072.28;5094285;27;45860;-42
2022/09/23 02:38:15;;;;;;;;;13.25;11.50;;;;;17.05;43.99;101074.81;5095874;27;45311;-43
2022/09/23 02:40:52;;;;;;;;;12.75;11.00;;;;;17.04;43.91;101066.03;5093240;27;45270;-42
2022/09/23 02:43:37;;;;;;;;;15.50;12.00;;;;;17.05;43.92;101066.88;5093836;27;45542;-42
2022/09/23 02:46:03;;;;;;;;;15.50;10.50;;;;;17.03;43.97;101068.75;5088969;27;45993;-47
2022/09/23 02:48:36;;;;;;;;;12.75;11.00;;;;;17.03;44.14;101063.47;5090359;27;45284;-42
2022/09/23 02:51:02;;;;;;;;;8.75;8.25;;;;;17.02;43.70;101062.63;5083175;27;45549;-42
2022/09/23 02:53:32;;;;;;;;;13.75;11.00;;;;;17.02;43.86;101059.97;5091718;27;45861;-42
2022/09/23 02:55:57;;;;;;;;;15.00;11.00;;;;;17.02;43.93;101057.34;5095501;27;45282;-42
2022/09/23 02:58:23;;;;;;;;;11.00;10.00;;;;;17.03;44.01;101058.19;5097267;27;68434;-42
2022/09/23 03:01:01;;;;;;;;;11.75;9.50;;;;;17.03;43.88;101059.06;5087690;27;45448;-42
2022/09/23 03:03:41;;;;;;;;;10.25;10.25;;;;;17.03;43.59;101050.25;5080703;27;45958;-42
2022/09/23 03:06:20;;;;;;;;;11.00;7.00;;;;;17.03;43.89;101056.41;5089808;27;45813;-42
2022/09/23 03:09:05;;;;;;;;;12.00;9.25;;;;;17.02;43.59;101049.41;5095841;27;47245;-42
2022/09/23 03:11:33;;;;;;;;;10.75;9.00;;;;;17.02;43.56;101046.75;5096315;27;45493;-43
2022/09/23 03:14:16;;;;;;;;;12.00;10.00;;;;;17.02;43.53;101048.56;5095270;27;45398;-41
2022/09/23 03:16:54;;;;;;;;;13.75;10.25;;;;;17.04;43.52;101051.97;5089819;27;45335;-42
2022/09/23 03:19:28;;;;;;;;;10.00;9.00;;;;;17.01;43.88;101045.03;5082648;27;45510;-45
2022/09/23 03:22:00;;;;;;;;;12.75;11.00;;;;;17.02;43.43;101040.63;5091141;27;46119;-45
2022/09/23 03:24:30;;;;;;;;;12.50;9.75;;;;;17.03;43.77;101052.88;5089924;27;46201;-43
2022/09/23 03:26:58;;;;;;;;;11.50;9.25;;;;;17.03;43.94;101042.31;5089597;27;45405;-44
2022/09/23 03:29:24;;;;;;;;;10.25;10.25;;;;;17.02;43.62;101049.41;5094146;27;45532;-45
2022/09/23 03:31:49;;;;;;;;;12.50;9.00;;;;;17.04;43.74;101050.19;5083106;27;45594;-44
2022/09/23 03:34:18;;;;;;;;;11.25;9.00;;;;;17.04;43.62;101046.69;5091840;27;45290;-48
2022/09/23 03:36:51;;;;;;;;;12.50;9.25;;;;;16.97;43.83;101035.53;5080544;27;45456;-43
2022/09/23 03:39:25;;;;;;;;;15.25;11.75;;;;;17.03;43.60;101048.47;5060795;27;45415;-42
2022/09/23 03:41:52;;;;;;;;;12.75;9.00;;;;;17.02;44.07;101048.56;5094725;27;45451;-41
2022/09/23 03:44:18;;;;;;;;;12.50;10.00;;;;;17.02;43.79;101052.03;5089953;27;45434;-41
2022/09/23 03:46:48;;;;;;;;;14.25;10.75;;;;;17.00;43.87;101048.63;5097743;27;45257;-42
2022/09/23 03:49:20;;;;;;;;;11.25;9.75;;;;;17.01;43.87;101052.13;5098286;27;45454;-42
2022/09/23 03:51:45;;;;;;;;;11.50;9.50;;;;;17.01;44.01;101054.75;5094658;27;45277;-45
2022/09/23 03:54:11;;;;;;;;;13.25;9.25;;;;;17.00;43.74;101051.25;5119475;27;46070;-44
2022/09/23 03:56:36;;;;;;;;;12.25;11.75;;;;;17.01;43.90;101049.47;5099930;27;66827;-42
2022/09/23 03:59:01;;;;;;;;;12.00;10.00;;;;;17.00;43.73;101056.56;5094886;27;46173;-42
2022/09/23 04:01:27;;;;;;;;;11.00;9.75;;;;;17.00;43.77;101048.63;5099572;27;53323;-42
2022/09/23 04:03:52;;;;;;;;;10.25;9.00;;;;;17.00;43.87;101058.34;5096993;27;46078;-43
2022/09/23 04:06:19;;;;;;;;;11.00;9.50;;;;;17.00;44.07;101051.25;5093251;27;45419;-44
2022/09/23 04:08:44;;;;;;;;;13.25;12.25;;;;;17.00;44.28;101061.00;5102924;27;45330;-42
2022/09/23 04:11:09;;;;;;;;;11.50;9.75;;;;;17.00;43.88;101058.34;5095805;27;69829;-43
2022/09/23 04:13:35;;;;;;;;;13.00;10.75;;;;;16.99;43.96;101062.75;5090233;27;67336;-44
2022/09/23 04:16:00;;;;;;;;;13.00;12.00;;;;;16.99;44.13;101056.63;5091911;27;46717;-46
2022/09/23 04:18:25;;;;;;;;;13.00;10.50;;;;;16.98;44.11;101062.81;5094655;27;45421;-45
2022/09/23 04:20:51;;;;;;;;;13.75;9.00;;;;;16.98;44.24;101055.78;5089994;27;73197;-44
2022/09/23 04:23:16;;;;;;;;;17.50;11.00;;;;;16.98;44.00;101054.91;5102591;27;60121;-43
2022/09/23 04:25:45;;;;;;;;;11.25;9.00;;;;;16.99;44.00;101054.81;5094208;27;70625;-44
2022/09/23 04:28:11;;;;;;;;;12.50;11.50;;;;;16.98;44.23;101062.81;5094848;27;45265;-42
2022/09/23 04:30:44;;;;;;;;;11.75;10.00;;;;;16.97;44.38;101055.84;5093884;27;45402;-43
2022/09/23 04:33:10;;;;;;;;;12.50;8.75;;;;;16.97;44.33;101045.28;5093862;27;46028;-47
2022/09/23 04:35:37;;;;;;;;;13.25;11.25;;;;;16.97;44.26;101056.69;5091238;27;45529;-43
2022/09/23 04:38:03;;;;;;;;;15.25;11.00;;;;;16.96;44.41;101052.31;5094138;27;45333;-42
2022/09/23 04:40:28;;;;;;;;;14.25;12.00;;;;;16.96;44.20;101057.63;5098267;27;45472;-42
2022/09/23 04:42:54;;;;;;;;;13.75;11.25;;;;;16.95;44.55;101047.97;5093480;27;46097;-42
2022/09/23 04:45:19;;;;;;;;;11.75;11.50;;;;;16.95;44.67;101049.78;5093570;27;45531;-43
2022/09/23 04:47:44;;;;;;;;;16.25;13.00;;;;;16.93;44.83;101041.03;5095436;27;52217;-43
2022/09/23 04:50:10;;;;;;;;;17.75;17.25;;;;;16.93;44.56;101049.84;5087438;27;60541;-42
2022/09/23 04:52:35;;;;;;;;;22.50;17.75;;;;;16.92;44.19;101044.63;5091437;27;61827;-43
2022/09/23 04:55:00;;;;;;;;;13.00;13.00;;;;;16.89;44.81;101046.50;5093561;27;70465;-44
2022/09/23 04:57:26;;;;;;;;;14.25;14.00;;;;;16.86;44.59;101041.34;5097374;27;45399;-42
2022/09/23 04:59:54;;;;;;;;;12.75;12.50;;;;;16.85;44.48;101042.28;5092110;27;45563;-42
2022/09/23 05:02:20;;;;;;;;;16.75;12.50;;;;;16.83;44.88;101032.69;5094864;27;46923;-43
2022/09/23 05:04:45;;;;;;;;;12.75;11.25;;;;;16.82;44.85;101034.47;5095903;27;45498;-43
2022/09/23 05:07:11;;;;;;;;;10.75;10.75;;;;;16.81;44.91;101026.63;5091282;27;68069;-43
2022/09/23 05:09:37;;;;;;;;;14.75;13.25;;;;;16.81;45.11;101031.91;5093655;27;59259;-41
2022/09/23 05:12:03;;;;;;;;;14.75;11.00;;;;;16.80;44.83;101030.19;5100290;27;46061;-42
2022/09/23 05:14:28;;;;;;;;;15.25;12.00;;;;;16.78;45.10;101027.59;5100773;27;45422;-42
2022/09/23 05:16:53;;;;;;;;;18.25;11.25;;;;;16.78;45.15;101027.59;5091432;27;64617;-41
2022/09/23 05:19:19;;;;;;;;;15.75;11.25;;;;;16.77;45.01;101025.91;5096977;27;45366;-42
2022/09/23 05:21:44;;;;;;;;;12.00;11.50;;;;;16.77;45.13;101025.03;5091437;27;63480;-44
2022/09/23 05:24:11;;;;;;;;;18.00;11.50;;;;;16.74;45.38;101019.91;5095448;27;45256;-43
2022/09/23 05:26:37;;;;;;;;;15.25;12.25;;;;;16.75;44.93;101021.63;5098067;27;45180;-42
2022/09/23 05:29:02;;;;;;;;;18.25;12.50;;;;;16.72;45.10;101021.78;5097134;27;45353;-41
2022/09/23 05:31:29;;;;;;;;;13.75;12.75;;;;;16.72;45.43;101032.34;5087509;27;45425;-42
2022/09/23 05:33:56;;;;;;;;;11.00;11.00;;;;;16.68;45.47;101029.84;5081410;27;46322;-42
2022/09/23 05:36:23;;;;;;;;;12.25;12.00;;;;;16.68;45.18;101026.38;5094383;27;45644;-44
2022/09/23 05:38:50;;;;;;;;;16.75;13.25;;;;;16.68;45.57;101027.22;5097032;27;45309;-42
2022/09/23 05:41:16;;;;;;;;;16.00;11.25;;;;;16.67;45.46;101022.84;5095114;27;46599;-48
2022/09/23 05:43:42;;;;;;;;;9.25;7.00;;;;;16.67;45.58;101022.84;5096761;27;45206;-44
2022/09/23 05:46:11;;;;;;;;;16.00;14.50;;;;;16.68;45.48;101036.94;5096102;27;45400;-45
2022/09/23 05:48:37;;;;;;;;;16.00;14.00;;;;;16.67;45.49;101036.06;5104526;27;45428;-43
2022/09/23 05:51:05;;;;;;;;;18.75;14.00;;;;;16.68;45.66;101035.13;5092614;27;46162;-45
2022/09/23 05:53:31;;;;;;;;;20.75;11.75;;;;;16.68;45.84;101031.66;5099590;27;45371;-42
2022/09/23 05:55:56;;;;;;;;;20.00;13.75;;;;;16.68;45.93;101032.50;5098747;27;45755;-46
2022/09/23 05:58:23;;;;;;;;;17.00;14.00;;;;;16.68;45.53;101035.13;5099076;27;45261;-45
2022/09/23 06:00:49;;;;;;;;;15.75;15.50;;;;;16.63;45.89;101021.28;5098479;27;46993;-44
2022/09/23 06:03:16;;;;;;;;;13.00;12.75;;;;;16.69;46.01;101030.69;5097238;27;46451;-45
2022/09/23 06:05:42;;;;;;;;;17.50;15.00;;;;;16.71;45.97;101034.13;5099661;27;45321;-48
2022/09/23 06:08:08;;;;;;;;;17.00;15.75;;;;;16.72;46.17;101035.00;5097903;27;45416;-44
2022/09/23 06:10:45;;;;;;;;;18.25;14.50;;;;;16.72;46.21;101040.28;5081205;27;45360;-43
2022/09/23 06:13:11;;;;;;;;;15.00;13.00;;;;;16.70;45.98;101030.63;5092732;27;45370;-49
2022/09/23 06:15:37;;;;;;;;;21.00;15.50;;;;;16.71;46.14;101031.47;5090671;27;68406;-42
2022/09/23 06:18:03;;;;;;;;;18.25;16.25;;;;;16.71;46.38;101026.19;5087162;27;46339;-43
2022/09/23 06:20:28;;;;;;;;;20.50;15.75;;;;;16.73;46.26;101021.69;5098194;27;45659;-44
2022/09/23 06:22:55;;;;;;;;;19.50;18.00;;;;;16.75;46.25;101025.13;5097883;27;72913;-43
2022/09/23 06:25:21;;;;;;;;;23.25;18.50;;;;;16.77;46.20;101019.75;5088987;27;45336;-43
2022/09/23 06:27:54;;;;;;;;;14.25;13.75;;;;;16.78;46.19;101035.53;5095613;27;45322;-43
2022/09/23 06:30:20;;;;;;;;;18.50;14.50;;;;;16.80;46.46;101032.81;5095179;27;46193;-43
2022/09/23 06:32:52;;;;;;;;;22.50;15.00;;;;;16.83;46.25;101030.94;5095181;27;45257;-44
2022/09/23 06:35:18;;;;;;;;;14.50;12.25;;;;;16.85;46.42;101030.84;5091262;27;45523;-46
2022/09/23 06:37:44;;;;;;;;;15.00;15.00;;;;;16.86;46.24;101033.44;5089097;27;45408;-41
2022/09/23 06:40:10;;;;;;;;;21.75;16.50;;;;;16.89;46.41;101042.97;5088863;27;45504;-41
2022/09/23 06:42:35;;;;;;;;;18.25;14.50;;;;;16.91;46.27;101048.19;5083128;27;45503;-42
2022/09/23 06:45:01;;;;;;;;;18.75;15.50;;;;;16.90;46.23;101042.06;5096982;27;51289;-42
2022/09/23 06:47:27;;;;;;;;;20.75;18.00;;;;;16.91;46.41;101046.44;5093826;27;45465;-43
2022/09/23 06:49:53;;;;;;;;;20.50;15.75;;;;;16.91;46.27;101041.16;5094387;27;46385;-43
2022/09/23 06:52:20;;;;;;;;;16.50;13.00;;;;;16.93;46.34;101034.00;5093867;27;45270;-44
2022/09/23 06:54:46;;;;;;;;;18.75;14.75;;;;;16.95;46.04;101036.56;5089249;27;45219;-41
2022/09/23 06:57:13;;;;;;;;;22.00;14.75;;;;;16.94;45.95;101035.69;5090878;27;45383;-42
2022/09/23 06:59:38;;;;;;;;;23.00;15.00;;;;;16.97;46.14;101040.84;5083662;27;46140;-42
2022/09/23 07:02:03;;;;;;;;;19.50;15.50;;;;;16.97;46.18;101043.47;5092794;27;45436;-42
2022/09/23 07:04:29;;;;;;;;;14.50;14.00;;;;;16.98;46.43;101037.28;5081619;27;56737;-43
2022/09/23 07:06:54;;;;;;;;;15.75;14.75;;;;;17.00;45.93;101038.03;5097941;27;59678;-42
2022/09/23 07:09:19;;;;;;;;;15.50;14.00;;;;;17.02;46.13;101038.81;5091954;27;46913;-41
2022/09/23 07:11:46;;;;;;;;;17.00;15.00;;;;;17.02;46.16;101035.34;5099722;27;60001;-41
2022/09/23 07:14:12;;;;;;;;;16.50;13.50;;;;;17.03;45.77;101047.59;5096082;27;45299;-38
2022/09/23 07:16:38;;;;;;;;;20.25;13.75;;;;;17.05;45.72;101043.09;5094650;27;45380;-38
2022/09/23 07:19:03;;;;;;;;;19.25;16.75;;;;;17.07;46.09;101043.91;5090232;27;46293;-38
2022/09/23 07:21:29;;;;;;;;;19.50;13.50;;;;;17.09;46.20;101039.38;5094919;27;45222;-39
2022/09/23 07:23:56;;;;;;;;;17.50;17.00;;;;;17.13;46.02;101045.38;5094387;27;68145;-39
2022/09/23 07:26:22;;;;;;;;;19.25;13.00;;;;;17.17;45.71;101039.00;5083821;27;45380;-38
2022/09/23 07:28:55;;;;;;;;;23.00;16.00;;;;;17.21;45.90;101029.97;5091603;27;45607;-39
2022/09/23 07:31:21;;;;;;;;;14.25;13.25;;;;;17.24;45.64;101038.59;5093678;27;45541;-39
2022/09/23 07:33:47;;;;;;;;;23.00;19.75;;;;;17.27;45.78;101037.59;5089104;27;45560;-38
2022/09/23 07:36:16;;;;;;;;;20.50;17.50;;;;;17.29;45.53;101040.19;5096314;27;45505;-37
2022/09/23 07:38:41;;;;;;;;;23.25;17.25;;;;;17.27;45.36;101033.16;5099543;27;46399;-37
2022/09/23 07:41:09;;;;;;;;;16.75;15.00;;;;;17.29;45.52;101035.72;5082654;27;45319;-38
2022/09/23 07:43:36;;;;;;;;;17.00;14.75;;;;;17.27;45.59;101040.25;5090388;27;45274;-38
2022/09/23 07:46:04;;;;;;;;;19.75;17.75;;;;;17.26;45.19;101041.16;5082127;27;45597;-38
2022/09/23 07:48:30;;;;;;;;;17.00;15.50;;;;;17.27;45.54;101046.38;5079287;27;45977;-38
2022/09/23 07:50:56;;;;;;;;;19.75;16.25;;;;;17.30;45.21;101049.81;5079848;27;45477;-38
2022/09/23 07:53:22;;;;;;;;;17.75;15.75;;;;;17.32;45.40;101048.81;5080558;27;45538;-38
2022/09/23 07:55:55;;;;;;;;;21.00;18.00;;;;;17.32;45.19;101043.53;5081270;27;45247;-38
2022/09/23 07:58:20;;;;;;;;;23.25;20.25;;;;;17.32;45.31;101045.31;5083392;27;46420;-38
2022/09/23 08:00:46;;;;;;;;;20.75;18.00;;;;;17.35;45.23;101056.59;5111137;27;45882;-38
2022/09/23 08:03:11;;;;;;;;;18.50;16.50;;;;;17.39;45.18;101065.25;5088829;27;64586;-39
2022/09/23 08:05:37;;;;;;;;;28.25;18.25;;;;;17.45;45.03;101067.56;5086609;27;45426;-38
2022/09/23 08:08:06;;;;;;;;;21.25;18.75;;;;;17.45;45.08;101065.75;5086111;27;47005;-38
2022/09/23 08:10:32;;;;;;;;;20.00;20.00;;;;;17.51;45.06;101069.03;5086620;27;45205;-39
2022/09/23 08:12:58;;;;;;;;;19.00;16.00;;;;;17.56;44.76;101075.81;5094740;27;45537;-39
2022/09/23 08:15:24;;;;;;;;;22.50;21.25;;;;;17.61;45.31;101083.53;5091359;27;45419;-38
2022/09/23 08:17:49;;;;;;;;;21.00;16.50;;;;;17.65;44.75;101077.13;5087367;27;73879;-39
2022/09/23 08:20:43;;;;;;;;;23.00;17.75;;;;;17.71;44.82;101082.13;5084873;27;45472;-39
2022/09/23 08:23:00;;;;;;;;;26.25;21.25;;;;;17.75;44.87;101072.22;5094099;27;45626;-39
2022/09/23 08:25:25;;;;;;;;;25.50;14.75;;;;;17.80;44.70;101079.00;5085807;27;45371;-39
2022/09/23 08:27:51;;;;;;;;;24.75;20.25;;;;;17.86;44.51;101072.56;5090990;27;71145;-39
2022/09/23 08:30:16;;;;;;;;;20.75;19.75;;;;;17.90;44.66;101076.78;5087990;27;45294;-38
2022/09/23 08:32:41;;;;;;;;;21.50;20.25;;;;;17.94;44.53;101075.66;5091244;27;67106;-38
2022/09/23 08:35:07;;;;;;;;;21.25;20.00;;;;;17.99;44.47;101088.69;5087149;27;45425;-38
2022/09/23 08:37:32;;;;;;;;;27.75;19.25;;;;;18.04;43.91;101083.97;5097421;27;46033;-38
2022/09/23 08:39:58;;;;;;;;;25.00;20.50;;;;;18.09;44.32;101081.09;5092385;27;72210;-38
2022/09/23 08:42:30;;;;;;;;;18.50;16.50;;;;;18.13;44.18;101082.63;5091738;27;45688;-38
2022/09/23 08:44:58;;;;;;;;;27.00;22.50;;;;;18.17;44.02;101079.75;5100867;27;45311;-39
2022/09/23 08:47:39;;;;;;;;;26.00;19.25;;;;;18.23;44.11;101085.66;5097063;27;45308;-39
2022/09/23 08:50:20;;;;;;;;;26.75;20.50;;;;;18.27;43.83;101087.19;5088231;27;45459;-38
2022/09/23 08:52:51;;;;;;;;;24.00;22.50;;;;;18.32;43.84;101072.75;5100013;27;45444;-39
2022/09/23 08:55:17;;;;;;;;;26.75;21.25;;;;;18.38;43.94;101069.78;5100793;27;45417;-39
2022/09/23 08:58:20;;;;;;;;;22.75;20.25;;;;;18.42;43.60;101069.63;5101407;27;46157;-39
2022/09/23 09:01:26;;;;;;;;;25.50;21.50;;;;;18.44;43.63;101065.09;5097640;27;45290;-39
2022/09/23 09:03:53;;;;;;;;;23.75;21.25;;;;;18.48;43.52;101069.28;5083028;27;45753;-39
2022/09/23 09:06:38;;;;;;;;;25.50;22.50;;;;;18.50;43.26;101075.34;5081727;27;45188;-39
2022/09/23 09:09:08;;;;;;;;;24.50;21.50;;;;;18.51;43.40;101077.06;5085458;27;47117;-39
2022/09/23 09:11:36;;;;;;;;;30.25;25.25;;;;;18.56;43.20;101072.38;5084114;27;45497;-39
2022/09/23 09:14:14;;;;;;;;;29.50;23.25;;;;;18.61;43.32;101070.31;5094614;27;45518;-38
2022/09/23 09:16:55;;;;;;;;;26.00;22.50;;;;;18.65;43.36;101069.22;5092714;27;45454;-39
2022/09/23 09:19:35;;;;;;;;;22.25;21.25;;;;;18.69;43.32;101065.44;5090782;27;46456;-39
2022/09/23 09:22:02;;;;;;;;;25.50;23.25;;;;;18.73;43.14;101061.69;5090971;27;45451;-40
2022/09/23 09:24:33;;;;;;;;;19.50;18.50;;;;;18.78;42.81;101064.91;5093862;27;45467;-39
2022/09/23 09:27:10;;;;;;;;;25.50;22.25;;;;;18.81;42.93;101063.06;5101317;27;45339;-39
2022/09/23 09:29:39;;;;;;;;;27.00;22.75;;;;;18.83;43.01;101055.91;5101469;27;45257;-38
2022/09/23 09:32:37;;;;;;;;;23.25;19.50;;;;;18.87;42.76;101057.41;5099245;27;45342;-38
2022/09/23 09:35:14;;;;;;;;;28.50;22.00;;;;;18.90;42.88;101055.44;5053027;27;45558;-38
2022/09/23 09:37:45;;;;;;;;;29.25;25.50;;;;;18.90;42.56;101051.97;5095443;27;45263;-38
2022/09/23 09:40:11;;;;;;;;;25.00;21.75;;;;;18.90;42.48;101052.81;5101578;27;46941;-38
2022/09/23 09:42:39;;;;;;;;;24.50;20.00;;;;;18.93;42.62;101052.63;5092994;27;45527;-39
2022/09/23 09:45:20;;;;;;;;;26.00;24.00;;;;;19.00;42.51;101049.63;5086342;27;45281;-39
2022/09/23 09:48:19;;;;;;;;;27.00;21.00;;;;;19.07;42.05;101043.00;5112535;27;45491;-39
2022/09/23 09:50:54;;;;;;;;;27.00;22.25;;;;;19.14;42.28;101049.66;5062118;27;46503;-39
2022/09/23 09:53:26;;;;;;;;;21.50;17.50;;;;;19.20;42.44;101053.78;5099062;27;45816;-39
2022/09/23 09:55:59;;;;;;;;;29.00;24.50;;;;;19.21;41.92;101052.84;5090603;27;45464;-39
2022/09/23 09:58:28;;;;;;;;;25.00;20.50;;;;;19.24;41.68;101058.81;5090905;27;45372;-39
2022/09/23 10:00:55;;;;;;;;;28.00;24.00;;;;;19.31;41.71;101052.19;5087301;27;47115;-39
2022/09/23 10:03:20;;;;;;;;;25.75;22.00;;;;;19.37;41.81;101053.66;5087833;27;45785;-39
2022/09/23 10:05:51;;;;;;;;;26.33;23.33;;;;;19.44;41.54;101048.81;5092447;27;45403;-39
2022/09/23 10:08:34;;;;;;;;;29.25;23.50;;;;;19.52;41.63;101051.88;5095447;27;45452;-39
2022/09/23 10:11:07;;;;;;;;;29.75;23.50;;;;;19.60;41.65;101048.75;5104079;27;45612;-39
2022/09/23 10:13:32;;;;;;;;;25.50;24.00;;;;;19.63;41.19;101045.94;5099358;27;45341;-39
2022/09/23 10:15:59;;;;;;;;;27.25;23.50;;;;;19.67;41.23;101036.81;5097192;27;45595;-39
2022/09/23 10:18:36;;;;;;;;;32.50;25.75;;;;;19.70;41.23;101037.50;5099065;27;45411;-39
2022/09/23 10:21:06;;;;;;;;;28.75;22.50;;;;;19.74;41.13;101035.53;5087181;27;46207;-39
2022/09/23 10:23:32;;;;;;;;;27.25;23.00;;;;;19.77;41.00;101029.22;5108600;27;45445;-39
2022/09/23 10:25:59;;;;;;;;;27.00;24.25;;;;;19.83;41.45;101028.81;5095696;27;45283;-39
2022/09/23 10:28:39;;;;;;;;;28.25;22.00;;;;;19.87;41.02;101035.66;5096365;27;45475;-40
2022/09/23 10:31:25;;;;;;;;;31.25;23.25;;;;;19.94;41.04;101036.13;5100355;27;47168;-39
2022/09/23 10:33:58;;;;;;;;;34.75;24.50;;;;;19.99;40.81;101031.38;5093088;27;45175;-39
2022/09/23 10:36:23;;;;;;;;;30.75;26.50;;;;;20.04;40.12;101022.22;5096624;27;45354;-40
2022/09/23 10:38:54;;;;;;;;;27.25;23.25;;;;;20.07;40.28;101022.00;5092000;27;45282;-39
2022/09/23 10:47:27;;;;;;;;;30.25;23.00;;;;;20.18;40.13;101023.97;5095859;27;45346;-40
2022/09/23 10:50:02;;;;;;;;;25.75;21.75;;;;;20.21;40.23;101021.13;5095349;27;45279;-39
2022/09/23 10:52:43;;;;;;;;;25.75;22.75;;;;;20.25;40.04;101022.63;5096878;27;45580;-39
2022/09/23 10:55:30;;;;;;;;;34.00;26.00;;;;;20.30;39.82;101017.88;5088496;27;45747;-38
2022/09/23 10:58:24;;;;;;;;;46.50;33.00;;;;;20.35;39.63;101008.78;5080634;27;45265;-38
2022/09/23 11:01:01;;;;;;;;;20.75;17.00;;;;;20.39;39.67;101016.44;5085086;27;45433;-38
2022/09/23 11:04:00;;;;;;;;;23.00;21.25;;;;;20.44;38.72;101010.84;5082358;27;46453;-38
2022/09/23 11:06:50;;;;;;;;;24.00;19.50;;;;;20.51;38.68;101006.00;5085734;27;45370;-39
2022/09/23 11:09:42;;;;;;;;;29.50;23.25;;;;;20.58;38.51;101007.31;5074436;27;45570;-39
2022/09/23 11:12:23;;;;;;;;;26.00;21.25;;;;;20.62;38.66;100998.19;5091000;27;45451;-39
2022/09/23 11:15:11;;;;;;;;;22.25;18.00;;;;;20.67;38.20;100999.59;5093086;27;46199;-39
2022/09/23 11:18:01;;;;;;;;;19.50;18.75;;;;;20.73;38.43;100994.84;5094196;27;45339;-39
2022/09/23 11:20:59;;;;;;;;;25.00;21.00;;;;;20.77;37.93;100994.53;5092191;27;45272;-39
2022/09/23 11:23:37;;;;;;;;;26.00;18.75;;;;;20.80;37.60;100998.81;5089836;27;45492;-39
2022/09/23 11:26:22;;;;;;;;;21.75;19.00;;;;;20.81;37.76;100996.03;5081415;27;45566;-39
2022/09/23 11:29:41;;;;;;;;;27.50;23.75;;;;;20.82;37.78;100992.44;5069515;27;45445;-38
2022/09/23 11:32:34;;;;;;;;;24.00;20.00;;;;;20.81;38.05;100981.91;5034675;27;45282;-38